ARG1491 SASA-SACO
Flight info
| Callsign | ARG1491 |
|---|---|
| Flight time | 1h 46m |
| Altitude | 19000 |
| Route | VUL1 PONPI UN525 DONKA DONKA2X |
| Aircraft | AT76/M-SDFGIRY/S |
Departure
| Time | 2026-04-23 19:18 |
|---|---|
| Airport | Martín Miguel de Güemes International Airport (SASA) |
Arrival
| Time | 2026-04-23 21:04 |
|---|---|
| Airport | Ingeniero Aeronáutico Ambrosio L.V. Taravella International Airport (SACO) |
| Time | Latitude | Longitude | Altitude | Speed | Heading |
|---|---|---|---|---|---|
| 2026-04-23 18:49 | -24.84524 | -65.47954 | 4040 ft | 0 kts | 205° |
| 2026-04-23 19:08 | -24.84520 | -65.47952 | 4040 ft | 1 kts | 205° |
| 2026-04-23 19:09 | -24.84509 | -65.47947 | 4040 ft | 1 kts | 207° |
| 2026-04-23 19:09 | -24.84502 | -65.47942 | 4040 ft | 2 kts | 225° |
| 2026-04-23 19:09 | -24.84491 | -65.47928 | 4040 ft | 0 kts | 246° |
| 2026-04-23 19:10 | -24.84499 | -65.47954 | 4040 ft | 7 kts | 259° |
| 2026-04-23 19:10 | -24.84518 | -65.48025 | 4040 ft | 12 kts | 252° |
| 2026-04-23 19:11 | -24.84548 | -65.48126 | 4041 ft | 15 kts | 251° |
| 2026-04-23 19:11 | -24.84583 | -65.48244 | 4042 ft | 17 kts | 253° |
| 2026-04-23 19:11 | -24.84631 | -65.48351 | 4048 ft | 14 kts | 231° |
| 2026-04-23 19:11 | -24.84705 | -65.48423 | 4049 ft | 16 kts | 218° |
| 2026-04-23 19:12 | -24.84778 | -65.48445 | 4049 ft | 17 kts | 191° |
| 2026-04-23 19:12 | -24.84958 | -65.48483 | 4045 ft | 22 kts | 191° |
| 2026-04-23 19:12 | -24.85121 | -65.48516 | 4041 ft | 25 kts | 193° |
| 2026-04-23 19:12 | -24.85290 | -65.48557 | 4037 ft | 25 kts | 191° |
| 2026-04-23 19:13 | -24.85456 | -65.48593 | 4036 ft | 24 kts | 191° |
| 2026-04-23 19:13 | -24.85616 | -65.48628 | 4036 ft | 23 kts | 190° |
| 2026-04-23 19:13 | -24.85771 | -65.48660 | 4037 ft | 22 kts | 192° |
| 2026-04-23 19:13 | -24.85916 | -65.48693 | 4042 ft | 20 kts | 191° |
| 2026-04-23 19:14 | -24.86051 | -65.48722 | 4044 ft | 19 kts | 192° |
| 2026-04-23 19:14 | -24.86184 | -65.48752 | 4046 ft | 20 kts | 191° |
| 2026-04-23 19:14 | -24.86323 | -65.48782 | 4048 ft | 20 kts | 191° |
| 2026-04-23 19:14 | -24.86462 | -65.48813 | 4049 ft | 21 kts | 192° |
| 2026-04-23 19:15 | -24.86605 | -65.48845 | 4049 ft | 21 kts | 191° |
| 2026-04-23 19:15 | -24.86751 | -65.48876 | 4049 ft | 21 kts | 191° |
| 2026-04-23 19:15 | -24.86900 | -65.48898 | 4049 ft | 21 kts | 173° |
| 2026-04-23 19:15 | -24.87037 | -65.48848 | 4047 ft | 21 kts | 162° |
| 2026-04-23 19:16 | -24.87182 | -65.48799 | 4043 ft | 22 kts | 165° |
| 2026-04-23 19:16 | -24.87309 | -65.48850 | 4044 ft | 20 kts | 258° |
| 2026-04-23 19:16 | -24.87286 | -65.48931 | 4050 ft | 14 kts | 309° |
| 2026-04-23 19:17 | -24.87029 | -65.48935 | 4051 ft | 49 kts | 12° |
| 2026-04-23 19:17 | -24.86525 | -65.48827 | 4049 ft | 97 kts | 13° |
| 2026-04-23 19:17 | -24.85724 | -65.48658 | 4077 ft | 133 kts | 11° |
| 2026-04-23 19:17 | -24.84800 | -65.48470 | 4459 ft | 140 kts | 12° |
| 2026-04-23 19:18 | -24.83822 | -65.48232 | 4884 ft | 148 kts | 14° |
| 2026-04-23 19:18 | -24.82809 | -65.47970 | 5296 ft | 154 kts | 15° |
| 2026-04-23 19:18 | -24.81731 | -65.47678 | 5705 ft | 160 kts | 16° |
| 2026-04-23 19:18 | -24.80629 | -65.47389 | 6105 ft | 165 kts | 14° |
| 2026-04-23 19:19 | -24.78315 | -65.46897 | 6771 ft | 171 kts | 10° |
| 2026-04-23 19:19 | -24.77144 | -65.46675 | 7075 ft | 171 kts | 11° |
| 2026-04-23 19:20 | -24.75347 | -65.45324 | 7584 ft | 172 kts | 80° |
| 2026-04-23 19:20 | -24.75291 | -65.44010 | 7812 ft | 177 kts | 90° |
| 2026-04-23 19:20 | -24.75408 | -65.42648 | 8049 ft | 181 kts | 97° |
| 2026-04-23 19:20 | -24.75649 | -65.41273 | 8311 ft | 185 kts | 100° |
| 2026-04-23 19:21 | -24.75941 | -65.39883 | 8563 ft | 188 kts | 102° |
| 2026-04-23 19:21 | -24.76542 | -65.37037 | 9074 ft | 193 kts | 100° |
| 2026-04-23 19:21 | -24.76848 | -65.35586 | 9331 ft | 196 kts | 100° |
| 2026-04-23 19:22 | -24.77139 | -65.34113 | 9579 ft | 196 kts | 103° |
| 2026-04-23 19:22 | -24.77872 | -65.32880 | 9819 ft | 199 kts | 146° |
| 2026-04-23 19:22 | -24.80531 | -65.32062 | 10301 ft | 203 kts | 174° |
| 2026-04-23 19:23 | -24.81955 | -65.32011 | 10531 ft | 206 kts | 180° |
| 2026-04-23 19:23 | -24.83393 | -65.32039 | 10765 ft | 206 kts | 181° |
| 2026-04-23 19:23 | -24.84832 | -65.32066 | 10986 ft | 208 kts | 181° |
| 2026-04-23 19:24 | -24.87777 | -65.32069 | 11348 ft | 214 kts | 180° |
| 2026-04-23 19:24 | -24.89266 | -65.32061 | 11535 ft | 215 kts | 180° |
| 2026-04-23 19:24 | -24.92282 | -65.32043 | 11905 ft | 217 kts | 181° |
| 2026-04-23 19:25 | -24.95288 | -65.32022 | 12297 ft | 217 kts | 181° |
| 2026-04-23 19:25 | -24.98300 | -65.32002 | 12697 ft | 216 kts | 180° |
| 2026-04-23 19:26 | -25.01315 | -65.31987 | 13097 ft | 216 kts | 182° |
| 2026-04-23 19:26 | -25.02819 | -65.31975 | 13294 ft | 217 kts | 182° |
| 2026-04-23 19:27 | -25.05837 | -65.31952 | 13697 ft | 216 kts | 183° |
| 2026-04-23 19:27 | -25.10316 | -65.31928 | 14253 ft | 214 kts | 182° |
| 2026-04-23 19:28 | -25.13343 | -65.31908 | 14437 ft | 220 kts | 183° |
| 2026-04-23 19:28 | -25.16430 | -65.31888 | 14623 ft | 225 kts | 182° |
| 2026-04-23 19:29 | -25.18003 | -65.31877 | 14716 ft | 227 kts | 183° |
| 2026-04-23 19:29 | -25.21206 | -65.31858 | 14900 ft | 233 kts | 183° |
| 2026-04-23 19:30 | -25.24484 | -65.31836 | 15101 ft | 238 kts | 184° |
| 2026-04-23 19:30 | -25.26142 | -65.31826 | 15192 ft | 240 kts | 184° |
| 2026-04-23 19:30 | -25.29512 | -65.31804 | 15374 ft | 243 kts | 184° |
| 2026-04-23 19:31 | -25.31206 | -65.31794 | 15457 ft | 243 kts | 184° |
| 2026-04-23 19:31 | -25.32902 | -65.31783 | 15541 ft | 243 kts | 185° |
| 2026-04-23 19:31 | -25.34590 | -65.31774 | 15640 ft | 243 kts | 185° |
| 2026-04-23 19:31 | -25.36273 | -65.31762 | 15732 ft | 242 kts | 185° |
| 2026-04-23 19:32 | -25.37954 | -65.31752 | 15827 ft | 241 kts | 185° |
| 2026-04-23 19:32 | -25.39633 | -65.31741 | 15920 ft | 241 kts | 185° |
| 2026-04-23 19:32 | -25.41306 | -65.31731 | 16023 ft | 241 kts | 185° |
| 2026-04-23 19:32 | -25.42981 | -65.31720 | 16123 ft | 241 kts | 185° |
| 2026-04-23 19:33 | -25.44658 | -65.31712 | 16229 ft | 241 kts | 185° |
| 2026-04-23 19:33 | -25.46337 | -65.31700 | 16338 ft | 242 kts | 186° |
| 2026-04-23 19:33 | -25.49697 | -65.31678 | 16528 ft | 243 kts | 186° |
| 2026-04-23 19:34 | -25.51392 | -65.31668 | 16624 ft | 244 kts | 186° |
| 2026-04-23 19:34 | -25.53088 | -65.31657 | 16709 ft | 244 kts | 186° |
| 2026-04-23 19:34 | -25.56461 | -65.31632 | 16888 ft | 241 kts | 186° |
| 2026-04-23 19:35 | -25.58131 | -65.31623 | 16984 ft | 239 kts | 187° |
| 2026-04-23 19:35 | -25.59785 | -65.31614 | 17089 ft | 237 kts | 188° |
| 2026-04-23 19:35 | -25.61432 | -65.31600 | 17191 ft | 236 kts | 187° |
| 2026-04-23 19:35 | -25.63084 | -65.31594 | 17325 ft | 238 kts | 188° |
| 2026-04-23 19:36 | -25.64747 | -65.31586 | 17428 ft | 240 kts | 188° |
| 2026-04-23 19:36 | -25.66423 | -65.31573 | 17515 ft | 242 kts | 188° |
| 2026-04-23 19:36 | -25.68109 | -65.31574 | 17601 ft | 242 kts | 188° |
| 2026-04-23 19:36 | -25.69798 | -65.31572 | 17710 ft | 243 kts | 188° |
| 2026-04-23 19:37 | -25.71489 | -65.31567 | 17811 ft | 242 kts | 188° |
| 2026-04-23 19:37 | -25.73172 | -65.31556 | 17912 ft | 242 kts | 188° |
| 2026-04-23 19:37 | -25.74857 | -65.31541 | 18014 ft | 242 kts | 188° |
| 2026-04-23 19:37 | -25.76542 | -65.31489 | 18114 ft | 245 kts | 182° |
| 2026-04-23 19:38 | -25.78235 | -65.31191 | 18228 ft | 248 kts | 177° |
| 2026-04-23 19:38 | -25.79928 | -65.30808 | 18344 ft | 248 kts | 177° |
| 2026-04-23 19:38 | -25.81629 | -65.30423 | 18444 ft | 249 kts | 178° |
| 2026-04-23 19:38 | -25.83328 | -65.30067 | 18527 ft | 248 kts | 179° |
| 2026-04-23 19:39 | -25.85032 | -65.29746 | 18612 ft | 248 kts | 179° |
| 2026-04-23 19:39 | -25.86736 | -65.29443 | 18688 ft | 248 kts | 178° |
| 2026-04-23 19:39 | -25.88416 | -65.29141 | 18779 ft | 247 kts | 178° |
| 2026-04-23 19:39 | -25.90107 | -65.28823 | 18870 ft | 247 kts | 178° |
| 2026-04-23 19:40 | -25.91796 | -65.28502 | 18967 ft | 246 kts | 179° |
| 2026-04-23 19:40 | -25.93492 | -65.28183 | 19041 ft | 247 kts | 179° |
| 2026-04-23 19:40 | -25.95193 | -65.27864 | 19077 ft | 249 kts | 179° |
| 2026-04-23 19:40 | -25.96903 | -65.27546 | 19104 ft | 251 kts | 179° |
| 2026-04-23 19:41 | -25.98632 | -65.27221 | 19107 ft | 253 kts | 178° |
| 2026-04-23 19:41 | -26.00369 | -65.26891 | 19116 ft | 254 kts | 178° |
| 2026-04-23 19:41 | -26.02121 | -65.26561 | 19122 ft | 256 kts | 178° |
| 2026-04-23 19:41 | -26.03883 | -65.26227 | 19123 ft | 258 kts | 178° |
| 2026-04-23 19:42 | -26.05638 | -65.25893 | 19119 ft | 259 kts | 178° |
| 2026-04-23 19:42 | -26.07418 | -65.25555 | 19115 ft | 260 kts | 178° |
| 2026-04-23 19:42 | -26.09226 | -65.25212 | 19115 ft | 261 kts | 178° |
| 2026-04-23 19:42 | -26.11001 | -65.24877 | 19119 ft | 262 kts | 178° |
| 2026-04-23 19:43 | -26.12798 | -65.24537 | 19116 ft | 262 kts | 178° |
| 2026-04-23 19:43 | -26.14599 | -65.24196 | 19120 ft | 263 kts | 178° |
| 2026-04-23 19:43 | -26.16405 | -65.23854 | 19116 ft | 264 kts | 178° |
| 2026-04-23 19:43 | -26.18216 | -65.23512 | 19115 ft | 264 kts | 178° |
| 2026-04-23 19:44 | -26.20029 | -65.23168 | 19107 ft | 264 kts | 178° |
| 2026-04-23 19:44 | -26.21847 | -65.22823 | 19113 ft | 265 kts | 178° |
| 2026-04-23 19:44 | -26.23665 | -65.22479 | 19112 ft | 266 kts | 178° |
| 2026-04-23 19:44 | -26.25494 | -65.22132 | 19115 ft | 267 kts | 178° |
| 2026-04-23 19:45 | -26.27331 | -65.21784 | 19117 ft | 268 kts | 178° |
| 2026-04-23 19:45 | -26.29151 | -65.21439 | 19104 ft | 268 kts | 178° |
| 2026-04-23 19:45 | -26.30989 | -65.21089 | 19107 ft | 268 kts | 178° |
| 2026-04-23 19:45 | -26.32832 | -65.20738 | 19106 ft | 268 kts | 178° |
| 2026-04-23 19:46 | -26.34672 | -65.20388 | 19104 ft | 268 kts | 178° |
| 2026-04-23 19:46 | -26.36506 | -65.20039 | 19106 ft | 267 kts | 178° |
| 2026-04-23 19:46 | -26.38340 | -65.19691 | 19111 ft | 267 kts | 178° |
| 2026-04-23 19:46 | -26.40171 | -65.19346 | 19122 ft | 267 kts | 177° |
| 2026-04-23 19:47 | -26.41383 | -65.19126 | 19112 ft | 267 kts | 177° |
| 2026-04-23 19:47 | -26.43831 | -65.18673 | 19110 ft | 266 kts | 176° |
| 2026-04-23 19:47 | -26.45657 | -65.18326 | 19110 ft | 266 kts | 177° |
| 2026-04-23 19:47 | -26.47485 | -65.17980 | 19110 ft | 265 kts | 177° |
| 2026-04-23 19:48 | -26.49305 | -65.17632 | 19113 ft | 265 kts | 177° |
| 2026-04-23 19:48 | -26.51124 | -65.17287 | 19109 ft | 266 kts | 177° |
| 2026-04-23 19:48 | -26.52949 | -65.16938 | 19108 ft | 266 kts | 176° |
| 2026-04-23 19:48 | -26.54774 | -65.16591 | 19107 ft | 266 kts | 176° |
| 2026-04-23 19:49 | -26.56598 | -65.16245 | 19096 ft | 265 kts | 176° |
| 2026-04-23 19:49 | -26.58392 | -65.15899 | 19102 ft | 264 kts | 176° |
| 2026-04-23 19:49 | -26.60223 | -65.15549 | 19110 ft | 264 kts | 177° |
| 2026-04-23 19:49 | -26.62036 | -65.15206 | 19107 ft | 264 kts | 177° |
| 2026-04-23 19:50 | -26.63820 | -65.14865 | 19106 ft | 264 kts | 177° |
| 2026-04-23 19:50 | -26.65632 | -65.14519 | 19103 ft | 264 kts | 176° |
| 2026-04-23 19:50 | -26.67441 | -65.14170 | 19108 ft | 264 kts | 177° |
| 2026-04-23 19:50 | -26.69248 | -65.13824 | 19107 ft | 264 kts | 177° |
| 2026-04-23 19:51 | -26.71054 | -65.13482 | 19110 ft | 263 kts | 177° |
| 2026-04-23 19:51 | -26.72864 | -65.13139 | 19109 ft | 264 kts | 177° |
| 2026-04-23 19:51 | -26.74676 | -65.12791 | 19109 ft | 264 kts | 177° |
| 2026-04-23 19:51 | -26.76494 | -65.12444 | 19106 ft | 265 kts | 177° |
| 2026-04-23 19:52 | -26.77699 | -65.12214 | 19105 ft | 266 kts | 177° |
| 2026-04-23 19:52 | -26.80139 | -65.11750 | 19099 ft | 266 kts | 177° |
| 2026-04-23 19:52 | -26.81963 | -65.11404 | 19102 ft | 266 kts | 177° |
| 2026-04-23 19:52 | -26.83786 | -65.11056 | 19101 ft | 266 kts | 177° |
| 2026-04-23 19:53 | -26.85610 | -65.10704 | 19101 ft | 266 kts | 176° |
| 2026-04-23 19:53 | -26.87438 | -65.10339 | 19100 ft | 266 kts | 177° |
| 2026-04-23 19:53 | -26.89242 | -65.09986 | 19100 ft | 265 kts | 177° |
| 2026-04-23 19:53 | -26.91061 | -65.09635 | 19099 ft | 265 kts | 177° |
| 2026-04-23 19:54 | -26.92877 | -65.09284 | 19111 ft | 265 kts | 177° |
| 2026-04-23 19:54 | -26.94690 | -65.08927 | 19105 ft | 264 kts | 178° |
| 2026-04-23 19:54 | -26.96510 | -65.08576 | 19105 ft | 264 kts | 178° |
| 2026-04-23 19:54 | -26.98320 | -65.08226 | 19103 ft | 264 kts | 177° |
| 2026-04-23 19:55 | -27.00133 | -65.07873 | 19101 ft | 264 kts | 178° |
| 2026-04-23 19:55 | -27.01948 | -65.07521 | 19100 ft | 264 kts | 178° |
| 2026-04-23 19:55 | -27.03758 | -65.07168 | 19100 ft | 264 kts | 178° |
| 2026-04-23 19:55 | -27.05567 | -65.06817 | 19099 ft | 264 kts | 178° |
| 2026-04-23 19:56 | -27.07357 | -65.06469 | 19101 ft | 264 kts | 178° |
| 2026-04-23 19:56 | -27.09168 | -65.06115 | 19102 ft | 265 kts | 178° |
| 2026-04-23 19:56 | -27.10986 | -65.05759 | 19098 ft | 265 kts | 178° |
| 2026-04-23 19:56 | -27.12803 | -65.05405 | 19094 ft | 265 kts | 178° |
| 2026-04-23 19:57 | -27.14621 | -65.05051 | 19094 ft | 265 kts | 178° |
| 2026-04-23 19:57 | -27.16441 | -65.04694 | 19092 ft | 265 kts | 178° |
| 2026-04-23 19:57 | -27.17648 | -65.04458 | 19094 ft | 265 kts | 178° |
| 2026-04-23 19:57 | -27.20076 | -65.03987 | 19105 ft | 265 kts | 177° |
| 2026-04-23 19:58 | -27.21894 | -65.03629 | 19096 ft | 265 kts | 177° |
| 2026-04-23 19:58 | -27.23709 | -65.03274 | 19095 ft | 265 kts | 177° |
| 2026-04-23 19:58 | -27.25524 | -65.02920 | 19098 ft | 265 kts | 177° |
| 2026-04-23 19:58 | -27.27345 | -65.02564 | 19100 ft | 265 kts | 177° |
| 2026-04-23 19:59 | -27.29164 | -65.02208 | 19096 ft | 265 kts | 177° |
| 2026-04-23 19:59 | -27.30982 | -65.01851 | 19095 ft | 265 kts | 177° |
| 2026-04-23 19:59 | -27.32797 | -65.01495 | 19096 ft | 265 kts | 177° |
| 2026-04-23 19:59 | -27.34590 | -65.01145 | 19096 ft | 265 kts | 177° |
| 2026-04-23 20:00 | -27.36412 | -65.00788 | 19097 ft | 264 kts | 177° |
| 2026-04-23 20:00 | -27.38225 | -65.00432 | 19098 ft | 264 kts | 177° |
| 2026-04-23 20:00 | -27.40038 | -65.00078 | 19099 ft | 264 kts | 177° |
| 2026-04-23 20:00 | -27.41851 | -64.99722 | 19102 ft | 264 kts | 177° |
| 2026-04-23 20:01 | -27.43665 | -64.99367 | 19106 ft | 265 kts | 177° |
| 2026-04-23 20:01 | -27.45476 | -64.99010 | 19105 ft | 265 kts | 177° |
| 2026-04-23 20:01 | -27.47293 | -64.98657 | 19108 ft | 265 kts | 175° |
| 2026-04-23 20:01 | -27.49109 | -64.98292 | 19109 ft | 265 kts | 176° |
| 2026-04-23 20:02 | -27.50926 | -64.97933 | 19103 ft | 265 kts | 176° |
| 2026-04-23 20:02 | -27.52744 | -64.97576 | 19100 ft | 265 kts | 176° |
| 2026-04-23 20:02 | -27.54563 | -64.97220 | 19099 ft | 265 kts | 176° |
| 2026-04-23 20:02 | -27.56359 | -64.96869 | 19102 ft | 265 kts | 176° |
| 2026-04-23 20:03 | -27.58199 | -64.96509 | 19100 ft | 265 kts | 176° |
| 2026-04-23 20:03 | -27.60019 | -64.96151 | 19101 ft | 266 kts | 176° |
| 2026-04-23 20:03 | -27.61820 | -64.95797 | 19101 ft | 266 kts | 176° |
| 2026-04-23 20:03 | -27.63645 | -64.95437 | 19102 ft | 266 kts | 176° |
| 2026-04-23 20:04 | -27.65469 | -64.95078 | 19102 ft | 266 kts | 176° |
| 2026-04-23 20:04 | -27.66678 | -64.94841 | 19101 ft | 266 kts | 176° |
| 2026-04-23 20:04 | -27.68515 | -64.94476 | 19100 ft | 266 kts | 176° |
| 2026-04-23 20:04 | -27.70342 | -64.94118 | 19099 ft | 266 kts | 176° |
| 2026-04-23 20:05 | -27.72169 | -64.93763 | 19105 ft | 266 kts | 176° |
| 2026-04-23 20:05 | -27.73996 | -64.93405 | 19105 ft | 266 kts | 176° |
| 2026-04-23 20:05 | -27.75824 | -64.93047 | 19103 ft | 266 kts | 176° |
| 2026-04-23 20:05 | -27.77649 | -64.92691 | 19097 ft | 266 kts | 175° |
| 2026-04-23 20:06 | -27.79472 | -64.92336 | 19096 ft | 266 kts | 176° |
| 2026-04-23 20:06 | -27.81298 | -64.91992 | 19098 ft | 266 kts | 176° |
| 2026-04-23 20:06 | -27.83123 | -64.91657 | 19100 ft | 266 kts | 176° |
| 2026-04-23 20:06 | -27.84950 | -64.91326 | 19098 ft | 266 kts | 176° |
| 2026-04-23 20:07 | -27.86776 | -64.90992 | 19096 ft | 266 kts | 176° |
| 2026-04-23 20:07 | -27.88601 | -64.90657 | 19104 ft | 266 kts | 176° |
| 2026-04-23 20:07 | -27.90428 | -64.90318 | 19102 ft | 266 kts | 176° |
| 2026-04-23 20:07 | -27.92250 | -64.89980 | 19101 ft | 266 kts | 176° |
| 2026-04-23 20:08 | -27.94076 | -64.89642 | 19101 ft | 266 kts | 176° |
| 2026-04-23 20:08 | -27.95901 | -64.89305 | 19098 ft | 266 kts | 176° |
| 2026-04-23 20:08 | -27.97705 | -64.88971 | 19098 ft | 266 kts | 176° |
| 2026-04-23 20:08 | -27.99530 | -64.88637 | 19102 ft | 266 kts | 176° |
| 2026-04-23 20:09 | -28.01354 | -64.88300 | 19101 ft | 266 kts | 176° |
| 2026-04-23 20:09 | -28.03173 | -64.87959 | 19097 ft | 265 kts | 176° |
| 2026-04-23 20:09 | -28.04996 | -64.87620 | 19096 ft | 265 kts | 176° |
| 2026-04-23 20:09 | -28.06821 | -64.87280 | 19100 ft | 265 kts | 176° |
| 2026-04-23 20:10 | -28.08638 | -64.86944 | 19101 ft | 265 kts | 176° |
| 2026-04-23 20:10 | -28.10464 | -64.86607 | 19098 ft | 265 kts | 176° |
| 2026-04-23 20:10 | -28.12289 | -64.86268 | 19096 ft | 265 kts | 176° |
| 2026-04-23 20:10 | -28.14110 | -64.85931 | 19100 ft | 265 kts | 176° |
| 2026-04-23 20:11 | -28.15929 | -64.85592 | 19106 ft | 265 kts | 176° |
| 2026-04-23 20:11 | -28.17731 | -64.85258 | 19105 ft | 266 kts | 176° |
| 2026-04-23 20:11 | -28.19558 | -64.84919 | 19093 ft | 266 kts | 176° |
| 2026-04-23 20:11 | -28.21384 | -64.84579 | 19089 ft | 266 kts | 176° |
| 2026-04-23 20:12 | -28.23209 | -64.84240 | 19096 ft | 266 kts | 176° |
| 2026-04-23 20:12 | -28.25034 | -64.83902 | 19105 ft | 266 kts | 175° |
| 2026-04-23 20:12 | -28.26863 | -64.83562 | 19094 ft | 266 kts | 175° |
| 2026-04-23 20:12 | -28.28688 | -64.83222 | 19107 ft | 266 kts | 175° |
| 2026-04-23 20:13 | -28.30517 | -64.82879 | 19093 ft | 266 kts | 175° |
| 2026-04-23 20:13 | -28.32345 | -64.82538 | 19096 ft | 266 kts | 175° |
| 2026-04-23 20:13 | -28.34165 | -64.82198 | 19086 ft | 265 kts | 175° |
| 2026-04-23 20:13 | -28.35989 | -64.81858 | 19087 ft | 265 kts | 175° |
| 2026-04-23 20:14 | -28.37806 | -64.81520 | 19092 ft | 264 kts | 175° |
| 2026-04-23 20:14 | -28.39618 | -64.81182 | 19092 ft | 264 kts | 175° |
| 2026-04-23 20:14 | -28.41434 | -64.80844 | 19090 ft | 264 kts | 175° |
| 2026-04-23 20:14 | -28.43242 | -64.80506 | 19098 ft | 263 kts | 175° |
| 2026-04-23 20:15 | -28.45047 | -64.80170 | 19096 ft | 263 kts | 175° |
| 2026-04-23 20:15 | -28.46829 | -64.79837 | 19095 ft | 263 kts | 175° |
| 2026-04-23 20:15 | -28.48635 | -64.79500 | 19095 ft | 263 kts | 175° |
| 2026-04-23 20:15 | -28.50443 | -64.79163 | 19109 ft | 264 kts | 175° |
| 2026-04-23 20:16 | -28.52264 | -64.78822 | 19092 ft | 264 kts | 175° |
| 2026-04-23 20:16 | -28.54069 | -64.78484 | 19103 ft | 264 kts | 175° |
| 2026-04-23 20:16 | -28.55883 | -64.78144 | 19092 ft | 263 kts | 175° |
| 2026-04-23 20:16 | -28.57691 | -64.77806 | 19092 ft | 263 kts | 175° |
| 2026-04-23 20:17 | -28.59493 | -64.77468 | 19092 ft | 263 kts | 175° |
| 2026-04-23 20:17 | -28.61298 | -64.77131 | 19096 ft | 262 kts | 175° |
| 2026-04-23 20:17 | -28.63100 | -64.76794 | 19101 ft | 262 kts | 175° |
| 2026-04-23 20:17 | -28.64897 | -64.76439 | 19092 ft | 263 kts | 174° |
| 2026-04-23 20:18 | -28.66696 | -64.76059 | 19092 ft | 263 kts | 174° |
| 2026-04-23 20:18 | -28.68492 | -64.75674 | 19092 ft | 263 kts | 174° |
| 2026-04-23 20:18 | -28.70287 | -64.75288 | 19089 ft | 262 kts | 174° |
| 2026-04-23 20:18 | -28.72079 | -64.74903 | 19089 ft | 262 kts | 174° |
| 2026-04-23 20:19 | -28.73880 | -64.74516 | 19090 ft | 262 kts | 174° |
| 2026-04-23 20:19 | -28.75673 | -64.74129 | 19089 ft | 262 kts | 174° |
| 2026-04-23 20:19 | -28.77469 | -64.73743 | 19094 ft | 262 kts | 174° |
| 2026-04-23 20:19 | -28.79258 | -64.73357 | 19089 ft | 262 kts | 174° |
| 2026-04-23 20:20 | -28.81026 | -64.72976 | 19092 ft | 262 kts | 174° |
| 2026-04-23 20:20 | -28.82823 | -64.72589 | 19092 ft | 262 kts | 174° |
| 2026-04-23 20:20 | -28.84613 | -64.72204 | 19090 ft | 262 kts | 174° |
| 2026-04-23 20:20 | -28.86401 | -64.71817 | 19091 ft | 262 kts | 174° |
| 2026-04-23 20:21 | -28.88188 | -64.71431 | 19092 ft | 262 kts | 174° |
| 2026-04-23 20:21 | -28.89980 | -64.71045 | 19096 ft | 262 kts | 174° |
| 2026-04-23 20:21 | -28.91768 | -64.70660 | 19091 ft | 262 kts | 174° |
| 2026-04-23 20:21 | -28.93561 | -64.70271 | 19098 ft | 262 kts | 174° |
| 2026-04-23 20:22 | -28.95353 | -64.69885 | 19088 ft | 262 kts | 174° |
| 2026-04-23 20:22 | -28.97145 | -64.69497 | 19087 ft | 262 kts | 174° |
| 2026-04-23 20:22 | -28.98939 | -64.69108 | 19088 ft | 262 kts | 174° |
| 2026-04-23 20:22 | -29.00725 | -64.68723 | 19099 ft | 262 kts | 174° |
| 2026-04-23 20:23 | -29.02519 | -64.68333 | 19090 ft | 262 kts | 174° |
| 2026-04-23 20:23 | -29.04311 | -64.67945 | 19088 ft | 262 kts | 174° |
| 2026-04-23 20:23 | -29.06106 | -64.67558 | 19087 ft | 262 kts | 174° |
| 2026-04-23 20:23 | -29.07898 | -64.67168 | 19086 ft | 262 kts | 174° |
| 2026-04-23 20:24 | -29.09693 | -64.66779 | 19088 ft | 262 kts | 174° |
| 2026-04-23 20:24 | -29.11487 | -64.66390 | 19089 ft | 262 kts | 174° |
| 2026-04-23 20:24 | -29.13281 | -64.66001 | 19089 ft | 262 kts | 174° |
| 2026-04-23 20:24 | -29.15050 | -64.65619 | 19088 ft | 262 kts | 174° |
| 2026-04-23 20:25 | -29.16839 | -64.65229 | 19086 ft | 262 kts | 174° |
| 2026-04-23 20:25 | -29.18050 | -64.64966 | 19088 ft | 262 kts | 174° |
| 2026-04-23 20:25 | -29.20428 | -64.64449 | 19087 ft | 263 kts | 174° |
| 2026-04-23 20:25 | -29.22227 | -64.64059 | 19090 ft | 263 kts | 174° |
| 2026-04-23 20:26 | -29.24021 | -64.63670 | 19085 ft | 263 kts | 174° |
| 2026-04-23 20:26 | -29.25823 | -64.63277 | 19084 ft | 263 kts | 174° |
| 2026-04-23 20:26 | -29.27629 | -64.62886 | 19085 ft | 263 kts | 174° |
| 2026-04-23 20:26 | -29.29425 | -64.62493 | 19085 ft | 263 kts | 174° |
| 2026-04-23 20:27 | -29.31224 | -64.62102 | 19088 ft | 263 kts | 174° |
| 2026-04-23 20:27 | -29.33020 | -64.61711 | 19088 ft | 263 kts | 174° |
| 2026-04-23 20:27 | -29.34817 | -64.61320 | 19088 ft | 263 kts | 174° |
| 2026-04-23 20:27 | -29.36618 | -64.60929 | 19088 ft | 263 kts | 174° |
| 2026-04-23 20:28 | -29.38414 | -64.60535 | 19088 ft | 263 kts | 174° |
| 2026-04-23 20:28 | -29.40197 | -64.60146 | 19088 ft | 263 kts | 174° |
| 2026-04-23 20:28 | -29.41992 | -64.59757 | 19091 ft | 263 kts | 174° |
| 2026-04-23 20:28 | -29.43794 | -64.59363 | 19092 ft | 263 kts | 174° |
| 2026-04-23 20:29 | -29.45589 | -64.58972 | 19090 ft | 263 kts | 174° |
| 2026-04-23 20:29 | -29.47390 | -64.58577 | 19089 ft | 263 kts | 174° |
| 2026-04-23 20:29 | -29.49189 | -64.58184 | 19089 ft | 263 kts | 174° |
| 2026-04-23 20:29 | -29.50983 | -64.57793 | 19103 ft | 263 kts | 174° |
| 2026-04-23 20:30 | -29.52792 | -64.57396 | 19097 ft | 263 kts | 174° |
| 2026-04-23 20:30 | -29.56393 | -64.56612 | 19093 ft | 264 kts | 174° |
| 2026-04-23 20:30 | -29.58201 | -64.56220 | 19092 ft | 264 kts | 174° |
| 2026-04-23 20:31 | -29.60008 | -64.55833 | 19092 ft | 264 kts | 174° |
| 2026-04-23 20:31 | -29.61815 | -64.55448 | 19091 ft | 264 kts | 174° |
| 2026-04-23 20:31 | -29.63616 | -64.55080 | 19091 ft | 263 kts | 175° |
| 2026-04-23 20:31 | -29.65401 | -64.54737 | 19091 ft | 263 kts | 175° |
| 2026-04-23 20:32 | -29.67207 | -64.54396 | 19091 ft | 263 kts | 175° |
| 2026-04-23 20:32 | -29.69014 | -64.54052 | 19091 ft | 263 kts | 175° |
| 2026-04-23 20:32 | -29.70824 | -64.53712 | 19091 ft | 263 kts | 175° |
| 2026-04-23 20:32 | -29.72626 | -64.53371 | 19091 ft | 263 kts | 175° |
| 2026-04-23 20:33 | -29.74435 | -64.53028 | 19091 ft | 263 kts | 176° |
| 2026-04-23 20:33 | -29.76241 | -64.52687 | 19099 ft | 263 kts | 176° |
| 2026-04-23 20:33 | -29.78049 | -64.52346 | 19096 ft | 263 kts | 176° |
| 2026-04-23 20:33 | -29.79858 | -64.52005 | 19094 ft | 264 kts | 176° |
| 2026-04-23 20:34 | -29.81668 | -64.51660 | 19092 ft | 264 kts | 175° |
| 2026-04-23 20:34 | -29.83484 | -64.51315 | 19092 ft | 264 kts | 176° |
| 2026-04-23 20:34 | -29.85298 | -64.50971 | 19092 ft | 264 kts | 176° |
| 2026-04-23 20:34 | -29.87116 | -64.50626 | 19092 ft | 264 kts | 176° |
| 2026-04-23 20:35 | -29.88928 | -64.50283 | 19094 ft | 265 kts | 176° |
| 2026-04-23 20:35 | -29.90745 | -64.49937 | 19095 ft | 265 kts | 175° |
| 2026-04-23 20:35 | -29.92542 | -64.49597 | 19093 ft | 265 kts | 176° |
| 2026-04-23 20:35 | -29.94365 | -64.49250 | 19094 ft | 265 kts | 175° |
| 2026-04-23 20:36 | -29.96206 | -64.48895 | 19097 ft | 265 kts | 175° |
| 2026-04-23 20:36 | -29.98000 | -64.48538 | 19096 ft | 265 kts | 175° |
| 2026-04-23 20:36 | -29.99815 | -64.48157 | 19098 ft | 266 kts | 174° |
| 2026-04-23 20:36 | -30.01639 | -64.47772 | 19110 ft | 266 kts | 174° |
| 2026-04-23 20:37 | -30.03461 | -64.47386 | 19101 ft | 266 kts | 174° |
| 2026-04-23 20:37 | -30.05283 | -64.46996 | 19100 ft | 266 kts | 175° |
| 2026-04-23 20:37 | -30.07105 | -64.46609 | 19100 ft | 266 kts | 175° |
| 2026-04-23 20:37 | -30.08929 | -64.46221 | 19100 ft | 266 kts | 174° |
| 2026-04-23 20:38 | -30.10752 | -64.45832 | 19103 ft | 266 kts | 174° |
| 2026-04-23 20:38 | -30.12573 | -64.45444 | 19106 ft | 266 kts | 175° |
| 2026-04-23 20:38 | -30.14396 | -64.45055 | 19105 ft | 266 kts | 174° |
| 2026-04-23 20:38 | -30.16220 | -64.44667 | 19105 ft | 266 kts | 174° |
| 2026-04-23 20:39 | -30.18045 | -64.44278 | 19107 ft | 267 kts | 174° |
| 2026-04-23 20:39 | -30.19867 | -64.43888 | 19104 ft | 267 kts | 174° |
| 2026-04-23 20:39 | -30.21697 | -64.43496 | 19103 ft | 267 kts | 174° |
| 2026-04-23 20:39 | -30.23498 | -64.43111 | 19104 ft | 267 kts | 174° |
| 2026-04-23 20:40 | -30.25320 | -64.42723 | 19107 ft | 266 kts | 174° |
| 2026-04-23 20:40 | -30.27144 | -64.42332 | 19116 ft | 267 kts | 175° |
| 2026-04-23 20:40 | -30.28969 | -64.41942 | 19111 ft | 267 kts | 175° |
| 2026-04-23 20:40 | -30.30794 | -64.41550 | 19113 ft | 267 kts | 174° |
| 2026-04-23 20:41 | -30.32620 | -64.41159 | 19110 ft | 267 kts | 174° |
| 2026-04-23 20:41 | -30.34451 | -64.40768 | 19110 ft | 267 kts | 175° |
| 2026-04-23 20:41 | -30.36275 | -64.40376 | 19110 ft | 267 kts | 174° |
| 2026-04-23 20:41 | -30.38097 | -64.39988 | 19110 ft | 266 kts | 174° |
| 2026-04-23 20:42 | -30.39923 | -64.39602 | 19110 ft | 266 kts | 175° |
| 2026-04-23 20:42 | -30.41741 | -64.39177 | 19109 ft | 268 kts | 168° |
| 2026-04-23 20:42 | -30.43501 | -64.38439 | 19111 ft | 269 kts | 162° |
| 2026-04-23 20:42 | -30.45229 | -64.37607 | 19108 ft | 270 kts | 162° |
| 2026-04-23 20:43 | -30.46988 | -64.36772 | 18829 ft | 281 kts | 163° |
| 2026-04-23 20:43 | -30.48875 | -64.35931 | 18451 ft | 292 kts | 163° |
| 2026-04-23 20:43 | -30.50680 | -64.35061 | 18953 ft | 267 kts | 159° |
| 2026-04-23 20:43 | -30.52384 | -64.34301 | 19077 ft | 261 kts | 167° |
| 2026-04-23 20:44 | -30.54121 | -64.33677 | 19096 ft | 262 kts | 168° |
| 2026-04-23 20:44 | -30.55859 | -64.33045 | 19108 ft | 263 kts | 166° |
| 2026-04-23 20:44 | -30.57594 | -64.32349 | 19112 ft | 264 kts | 165° |
| 2026-04-23 20:44 | -30.59297 | -64.31617 | 19120 ft | 265 kts | 164° |
| 2026-04-23 20:45 | -30.61066 | -64.30861 | 18913 ft | 272 kts | 165° |
| 2026-04-23 20:45 | -30.62816 | -64.30059 | 19000 ft | 270 kts | 159° |
| 2026-04-23 20:45 | -30.64492 | -64.29221 | 19291 ft | 254 kts | 163° |
| 2026-04-23 20:45 | -30.66198 | -64.28522 | 19010 ft | 267 kts | 167° |
| 2026-04-23 20:46 | -30.67925 | -64.27845 | 19318 ft | 254 kts | 165° |
| 2026-04-23 20:46 | -30.69606 | -64.27153 | 19221 ft | 261 kts | 166° |
| 2026-04-23 20:46 | -30.71347 | -64.26481 | 19147 ft | 265 kts | 166° |
| 2026-04-23 20:46 | -30.73089 | -64.25763 | 19140 ft | 266 kts | 165° |
| 2026-04-23 20:47 | -30.74849 | -64.25043 | 19075 ft | 269 kts | 166° |
| 2026-04-23 20:47 | -30.76600 | -64.24303 | 19137 ft | 267 kts | 163° |
| 2026-04-23 20:47 | -30.78332 | -64.23530 | 19165 ft | 266 kts | 163° |
| 2026-04-23 20:47 | -30.80055 | -64.22741 | 19209 ft | 265 kts | 163° |
| 2026-04-23 20:48 | -30.81787 | -64.22043 | 19210 ft | 261 kts | 172° |
| 2026-04-23 20:48 | -30.83551 | -64.21858 | 19210 ft | 256 kts | 186° |
| 2026-04-23 20:48 | -30.85339 | -64.21919 | 19071 ft | 262 kts | 188° |
| 2026-04-23 20:48 | -30.87211 | -64.22028 | 18791 ft | 274 kts | 187° |
| 2026-04-23 20:49 | -30.89134 | -64.22059 | 18818 ft | 272 kts | 184° |
| 2026-04-23 20:49 | -30.90994 | -64.21999 | 18823 ft | 270 kts | 183° |
| 2026-04-23 20:49 | -30.92907 | -64.21917 | 18544 ft | 280 kts | 183° |
| 2026-04-23 20:49 | -30.94896 | -64.21850 | 18169 ft | 290 kts | 183° |
| 2026-04-23 20:50 | -30.96942 | -64.21786 | 17752 ft | 298 kts | 182° |
| 2026-04-23 20:50 | -30.99043 | -64.21722 | 17357 ft | 305 kts | 182° |
| 2026-04-23 20:50 | -31.01180 | -64.21660 | 16943 ft | 309 kts | 182° |
| 2026-04-23 20:50 | -31.03323 | -64.21597 | 16531 ft | 307 kts | 182° |
| 2026-04-23 20:51 | -31.05451 | -64.21534 | 16133 ft | 304 kts | 182° |
| 2026-04-23 20:51 | -31.07547 | -64.21471 | 15744 ft | 300 kts | 182° |
| 2026-04-23 20:51 | -31.09610 | -64.21410 | 15366 ft | 293 kts | 182° |
| 2026-04-23 20:51 | -31.11631 | -64.21354 | 14997 ft | 287 kts | 182° |
| 2026-04-23 20:52 | -31.13534 | -64.21711 | 14641 ft | 272 kts | 206° |
| 2026-04-23 20:52 | -31.15162 | -64.22778 | 14303 ft | 266 kts | 217° |
| 2026-04-23 20:52 | -31.16125 | -64.23657 | 14086 ft | 264 kts | 224° |
| 2026-04-23 20:52 | -31.17441 | -64.25144 | 13746 ft | 262 kts | 228° |
| 2026-04-23 20:53 | -31.18702 | -64.26675 | 13377 ft | 261 kts | 228° |
| 2026-04-23 20:53 | -31.19965 | -64.28201 | 13019 ft | 261 kts | 228° |
| 2026-04-23 20:53 | -31.21254 | -64.29685 | 12672 ft | 260 kts | 227° |
| 2026-04-23 20:53 | -31.22554 | -64.31153 | 12320 ft | 260 kts | 226° |
| 2026-04-23 20:54 | -31.23848 | -64.32623 | 11980 ft | 260 kts | 226° |
| 2026-04-23 20:54 | -31.25146 | -64.34092 | 11639 ft | 259 kts | 226° |
| 2026-04-23 20:54 | -31.26424 | -64.35536 | 11297 ft | 258 kts | 227° |
| 2026-04-23 20:54 | -31.27710 | -64.37008 | 10973 ft | 259 kts | 227° |
| 2026-04-23 20:55 | -31.29004 | -64.38474 | 10646 ft | 259 kts | 227° |
| 2026-04-23 20:55 | -31.30298 | -64.39942 | 10313 ft | 259 kts | 227° |
| 2026-04-23 20:55 | -31.31588 | -64.41408 | 9994 ft | 259 kts | 227° |
| 2026-04-23 20:55 | -31.32870 | -64.42867 | 9619 ft | 254 kts | 227° |
| 2026-04-23 20:56 | -31.34119 | -64.44288 | 9282 ft | 247 kts | 227° |
| 2026-04-23 20:56 | -31.35342 | -64.45677 | 8949 ft | 242 kts | 226° |
| 2026-04-23 20:56 | -31.36752 | -64.46670 | 8590 ft | 239 kts | 195° |
| 2026-04-23 20:56 | -31.38338 | -64.46579 | 8275 ft | 224 kts | 165° |
| 2026-04-23 20:57 | -31.39788 | -64.45929 | 7966 ft | 225 kts | 154° |
| 2026-04-23 20:57 | -31.41143 | -64.44996 | 7664 ft | 226 kts | 146° |
| 2026-04-23 20:57 | -31.42423 | -64.43922 | 7357 ft | 227 kts | 143° |
| 2026-04-23 20:57 | -31.43688 | -64.42808 | 7048 ft | 228 kts | 143° |
| 2026-04-23 20:58 | -31.44905 | -64.41633 | 6742 ft | 226 kts | 135° |
| 2026-04-23 20:58 | -31.45965 | -64.40283 | 6398 ft | 224 kts | 127° |
| 2026-04-23 20:58 | -31.46465 | -64.38596 | 6036 ft | 223 kts | 88° |
| 2026-04-23 20:58 | -31.46037 | -64.36922 | 5706 ft | 208 kts | 61° |
| 2026-04-23 20:59 | -31.45259 | -64.35494 | 5387 ft | 208 kts | 51° |
| 2026-04-23 20:59 | -31.44332 | -64.34229 | 5063 ft | 208 kts | 45° |
| 2026-04-23 20:59 | -31.43289 | -64.33049 | 4718 ft | 205 kts | 42° |
| 2026-04-23 20:59 | -31.42273 | -64.31950 | 4371 ft | 193 kts | 42° |
| 2026-04-23 21:00 | -31.41307 | -64.30916 | 4057 ft | 182 kts | 42° |
| 2026-04-23 21:00 | -31.40417 | -64.29947 | 3781 ft | 169 kts | 43° |
| 2026-04-23 21:00 | -31.39593 | -64.29037 | 3597 ft | 156 kts | 43° |
| 2026-04-23 21:00 | -31.38841 | -64.28192 | 3419 ft | 145 kts | 44° |
| 2026-04-23 21:01 | -31.38135 | -64.27395 | 3222 ft | 137 kts | 45° |
| 2026-04-23 21:01 | -31.37492 | -64.26668 | 3049 ft | 120 kts | 45° |
| 2026-04-23 21:01 | -31.36925 | -64.26006 | 2914 ft | 111 kts | 46° |
| 2026-04-23 21:01 | -31.36384 | -64.25405 | 2729 ft | 106 kts | 46° |
| 2026-04-23 21:02 | -31.35862 | -64.24813 | 2759 ft | 106 kts | 46° |
| 2026-04-23 21:02 | -31.35316 | -64.24194 | 2603 ft | 113 kts | 45° |
| 2026-04-23 21:02 | -31.34758 | -64.23533 | 2450 ft | 115 kts | 46° |
| 2026-04-23 21:02 | -31.34190 | -64.22884 | 2236 ft | 115 kts | 45° |
| 2026-04-23 21:03 | -31.33614 | -64.22241 | 2048 ft | 114 kts | 44° |
| 2026-04-23 21:03 | -31.33054 | -64.21567 | 1823 ft | 113 kts | 43° |
| 2026-04-23 21:03 | -31.32493 | -64.20951 | 1670 ft | 109 kts | 41° |
| 2026-04-23 21:03 | -31.31967 | -64.20359 | 1578 ft | 97 kts | 41° |
| 2026-04-23 21:04 | -31.31724 | -64.20082 | 1566 ft | 0 kts | 44° |
| 2026-04-23 21:04 | -31.31716 | -64.20073 | 1565 ft | 4 kts | 44° |
| 2026-04-23 21:04 | -31.31695 | -64.20047 | 1564 ft | 5 kts | 45° |
| 2026-04-23 21:04 | -31.31672 | -64.20028 | 1563 ft | 3 kts | 22° |
| 2026-04-23 21:05 | -31.31649 | -64.20015 | 1563 ft | 3 kts | 64° |
| 2026-04-23 21:05 | -31.31660 | -64.20010 | 1562 ft | 5 kts | 187° |
| 2026-04-23 21:05 | -31.31730 | -64.20084 | 1566 ft | 18 kts | 225° |
| 2026-04-23 21:05 | -31.31826 | -64.20192 | 1571 ft | 21 kts | 224° |
| 2026-04-23 21:06 | -31.31939 | -64.20321 | 1574 ft | 24 kts | 224° |
| 2026-04-23 21:06 | -31.32056 | -64.20453 | 1577 ft | 24 kts | 223° |
| 2026-04-23 21:06 | -31.32178 | -64.20590 | 1578 ft | 24 kts | 224° |
| 2026-04-23 21:06 | -31.32300 | -64.20727 | 1591 ft | 25 kts | 224° |
| 2026-04-23 21:07 | -31.32419 | -64.20868 | 1593 ft | 24 kts | 230° |
| 2026-04-23 21:07 | -31.32385 | -64.21010 | 1581 ft | 19 kts | 338° |
| 2026-04-23 21:07 | -31.32264 | -64.21020 | 1581 ft | 16 kts | 359° |
| 2026-04-23 21:07 | -31.32160 | -64.21021 | 1581 ft | 14 kts | 358° |
| 2026-04-23 21:08 | -31.32066 | -64.21025 | 1582 ft | 13 kts | 358° |
| 2026-04-23 21:08 | -31.31977 | -64.21026 | 1584 ft | 13 kts | 358° |
| 2026-04-23 21:08 | -31.31887 | -64.21028 | 1584 ft | 13 kts | 360° |
| 2026-04-23 21:08 | -31.31794 | -64.21036 | 1584 ft | 14 kts | 338° |
| 2026-04-23 21:09 | -31.31703 | -64.21065 | 1585 ft | 14 kts | 356° |
| 2026-04-23 21:09 | -31.31648 | -64.21059 | 1585 ft | 1 kts | 50° |
| 2026-04-23 21:09 | -31.31646 | -64.21052 | 1586 ft | 1 kts | 77° |
| 2026-04-23 21:09 | -31.31647 | -64.21038 | 1586 ft | 2 kts | 107° |
| 2026-04-23 21:10 | -31.31649 | -64.21036 | 1586 ft | 0 kts | 129° |